CYLH

Lansdowne House Airport

Lansdowne House, Ontario, Canada
METAR CYLH 271100Z AUTO 22004KT 9SM OVC017 07/06 A2978 RMK SLP095
Observed Flight Rules
May-27 @ 11:00 UTC (an hour ago) Marginal Visual Flight Rules
Wind Visibility Clouds
220° at 4 knots 9 miles
  • Overcast at 1,700' AGL
Temperatures Readings
Current 7°C / 45°F
Dewpoint 6°C / 43°F
Humidity 93%
Altimeter 29.78" Hg
Pressure 1009.5 hPa
Elevation 254
METAR CYLH 271100Z AUTO 22004KT 9SM OVC017 07/06 A2978 RMK SLP095
Observed Flight Rules
May-27 @ 11:00 UTC
(an hour ago)
MVFR
Wind Visibility
220° at 4 knots 9 miles
Clouds
  • Overcast at 1,700' AGL
Temperature Dewpoint
7°C / 45°F 6°C / 43°F
Humidity Altimeter Pressure
93% 29.78" Hg 1009.5 hPa